createdAt,value
2022-10-14T00:01:15.344Z,10.02
2022-10-14T00:03:43.727Z,10.07
2022-10-14T00:06:17.731Z,10.10
2022-10-14T00:08:45.383Z,10.15
2022-10-14T00:11:18.724Z,10.13
2022-10-14T00:13:46.517Z,10.22
2022-10-14T00:16:26.300Z,10.20
2022-10-14T00:18:53.525Z,10.19
2022-10-14T00:21:20.875Z,10.19
2022-10-14T00:23:48.356Z,10.14
2022-10-14T00:26:22.230Z,10.21
2022-10-14T00:28:50.890Z,10.16
2022-10-14T00:31:19.165Z,10.25
2022-10-14T00:33:48.191Z,10.26
2022-10-14T00:36:18.119Z,10.25
2022-10-14T00:38:45.847Z,10.20
2022-10-14T00:41:21.016Z,10.19
2022-10-14T00:44:13.222Z,10.22
2022-10-14T00:46:43.167Z,10.19
2022-10-14T00:49:14.476Z,10.08
2022-10-14T00:51:46.704Z,10.10
2022-10-14T00:54:17.301Z,10.08
2022-10-14T00:56:45.888Z,10.08
2022-10-14T00:59:13.287Z,10.05
2022-10-14T01:01:40.660Z,10.13
2022-10-14T01:04:07.991Z,10.14
2022-10-14T01:06:53.952Z,10.18
2022-10-14T01:09:29.182Z,10.12
2022-10-14T01:12:27.607Z,10.11
2022-10-14T01:15:38.691Z,10.18
2022-10-14T01:18:12.295Z,10.10
2022-10-14T01:20:53.800Z,10.02
2022-10-14T01:23:39.670Z,10.07
2022-10-14T01:26:20.534Z,10.00
2022-10-14T01:29:15.387Z,9.99
2022-10-14T01:31:50.521Z,10.12
2022-10-14T01:34:27.486Z,10.16
2022-10-14T01:37:01.421Z,10.10
2022-10-14T01:39:35.996Z,10.21
2022-10-14T01:42:11.545Z,10.21
2022-10-14T01:44:43.596Z,10.16
2022-10-14T01:47:16.220Z,10.18
2022-10-14T01:49:49.733Z,10.15
2022-10-14T01:52:23.213Z,10.15
2022-10-14T01:54:54.899Z,10.18
2022-10-14T01:57:26.131Z,10.09
2022-10-14T01:59:55.735Z,10.13
2022-10-14T02:02:24.834Z,10.14
2022-10-14T02:04:52.566Z,10.21
2022-10-14T02:07:50.565Z,10.19
2022-10-14T02:10:34.176Z,10.27
2022-10-14T02:13:20.244Z,10.36
2022-10-14T02:16:23.901Z,10.42
2022-10-14T02:19:36.306Z,10.36
2022-10-14T02:22:15.771Z,10.31
2022-10-14T02:24:51.562Z,10.32
2022-10-14T02:27:21.955Z,10.27
2022-10-14T02:29:50.840Z,10.29
2022-10-14T02:32:22.965Z,10.21
2022-10-14T02:34:53.429Z,10.18
2022-10-14T02:37:22.379Z,10.13
2022-10-14T02:39:58.174Z,10.17
2022-10-14T02:42:28.128Z,10.18
2022-10-14T02:44:59.282Z,10.20
2022-10-14T02:47:27.349Z,10.20
2022-10-14T02:49:54.594Z,10.28
2022-10-14T02:52:21.930Z,10.20
2022-10-14T02:54:49.538Z,10.22
2022-10-14T02:57:17.051Z,10.18
2022-10-14T02:59:44.350Z,10.22
2022-10-14T03:02:11.729Z,10.23
2022-10-14T03:04:41.513Z,10.21
2022-10-14T03:07:09.468Z,10.09
2022-10-14T03:09:42.363Z,10.24
2022-10-14T03:12:10.619Z,10.32
2022-10-14T03:14:38.537Z,10.37
2022-10-14T03:17:08.698Z,10.42
2022-10-14T03:19:36.221Z,10.38
2022-10-14T03:22:03.651Z,10.35
2022-10-14T03:24:31.686Z,10.51
2022-10-14T03:27:17.703Z,10.53
2022-10-14T03:29:48.627Z,10.52
2022-10-14T03:32:20.972Z,10.57
2022-10-14T03:35:08.725Z,10.53
2022-10-14T03:37:36.400Z,10.44
2022-10-14T03:40:05.279Z,10.35
2022-10-14T03:42:34.831Z,10.35
2022-10-14T03:45:02.230Z,10.31
2022-10-14T03:47:31.336Z,10.32
2022-10-14T03:50:00.909Z,10.27
2022-10-14T03:52:44.860Z,10.34
2022-10-14T03:55:22.925Z,10.34
2022-10-14T03:57:52.045Z,10.37
2022-10-14T04:00:20.408Z,10.46
2022-10-14T04:02:55.886Z,10.49
2022-10-14T04:05:34.032Z,10.40
2022-10-14T04:08:08.475Z,10.46
2022-10-14T04:10:37.148Z,10.50
2022-10-14T04:13:04.444Z,10.47
2022-10-14T04:15:36.994Z,10.53
2022-10-14T04:18:10.858Z,10.41
2022-10-14T04:20:40.163Z,10.39
2022-10-14T04:23:09.180Z,10.35
2022-10-14T04:25:39.435Z,10.36
2022-10-14T04:28:07.777Z,10.35
2022-10-14T04:30:45.949Z,10.30
2022-10-14T04:33:19.216Z,10.38
2022-10-14T04:35:49.147Z,10.40
2022-10-14T04:38:24.829Z,10.36
2022-10-14T04:40:58.455Z,10.35
2022-10-14T04:43:26.758Z,10.33
2022-10-14T04:45:54.606Z,10.33
2022-10-14T04:48:26.503Z,10.29
2022-10-14T04:50:56.003Z,10.26
2022-10-14T04:53:55.559Z,10.25
2022-10-14T04:56:34.264Z,10.27
2022-10-14T04:59:04.613Z,10.28
2022-10-14T05:01:50.922Z,10.36
2022-10-14T05:04:18.612Z,10.23
2022-10-14T05:06:48.263Z,10.20
2022-10-14T05:09:18.328Z,10.11
2022-10-14T05:11:45.903Z,10.32
2022-10-14T05:14:18.073Z,10.28
2022-10-14T05:16:48.674Z,10.22
2022-10-14T05:19:23.207Z,10.23
2022-10-14T05:21:51.993Z,10.31
2022-10-14T05:24:26.124Z,10.44
2022-10-14T05:26:53.676Z,10.38
2022-10-14T05:29:21.089Z,10.33
2022-10-14T05:31:51.295Z,10.37
2022-10-14T05:34:34.959Z,10.28
2022-10-14T05:37:04.338Z,10.29
2022-10-14T05:39:38.267Z,10.18
2022-10-14T05:42:05.964Z,10.14
2022-10-14T05:44:35.206Z,10.15
2022-10-14T05:47:03.973Z,10.15
2022-10-14T05:49:31.456Z,10.12
2022-10-14T05:52:01.942Z,10.16
2022-10-14T05:54:31.486Z,10.20
2022-10-14T05:56:58.998Z,10.16
2022-10-14T05:59:27.551Z,10.10
2022-10-14T06:01:55.222Z,10.12
2022-10-14T06:04:22.926Z,10.19
2022-10-14T06:06:50.253Z,10.15
2022-10-14T06:09:17.830Z,10.30
2022-10-14T06:11:45.391Z,10.31
2022-10-14T06:14:12.788Z,10.34
2022-10-14T06:16:40.810Z,10.32
2022-10-14T06:19:08.418Z,10.30
2022-10-14T06:21:35.822Z,10.16
2022-10-14T06:24:03.185Z,10.26
2022-10-14T06:26:30.599Z,10.22
2022-10-14T06:28:58.007Z,10.23
2022-10-14T06:31:29.840Z,10.28
2022-10-14T06:34:00.108Z,10.36
2022-10-14T06:36:27.316Z,10.30
2022-10-14T06:38:54.591Z,10.36
2022-10-14T06:41:21.944Z,10.46
2022-10-14T06:43:49.242Z,10.43
2022-10-14T06:46:16.924Z,10.42
2022-10-14T06:48:48.105Z,10.42
2022-10-14T06:51:18.051Z,10.36
2022-10-14T06:53:45.336Z,10.30
2022-10-14T06:56:12.796Z,10.30
2022-10-14T06:58:40.082Z,10.36
2022-10-14T07:01:08.826Z,10.48
2022-10-14T07:03:38.741Z,10.49
2022-10-14T07:06:07.383Z,10.54
2022-10-14T07:08:34.784Z,10.54
2022-10-14T07:11:02.180Z,10.52
2022-10-14T07:13:29.622Z,10.58
2022-10-14T07:15:56.878Z,10.55
2022-10-14T07:18:24.094Z,10.56
2022-10-14T07:20:51.538Z,10.58
2022-10-14T07:23:19.058Z,10.55
2022-10-14T07:25:46.415Z,10.61
2022-10-14T07:28:13.738Z,10.58
2022-10-14T07:30:41.335Z,10.67
2022-10-14T07:33:08.557Z,10.78
2022-10-14T07:35:39.194Z,10.85
2022-10-14T07:38:06.881Z,10.95
2022-10-14T07:40:34.136Z,11.01
2022-10-14T07:43:01.360Z,11.06
2022-10-14T07:45:35.126Z,11.11
2022-10-14T07:48:02.520Z,11.15
2022-10-14T07:50:29.855Z,11.25
2022-10-14T07:53:01.057Z,11.31
2022-10-14T07:55:28.735Z,11.35
2022-10-14T07:57:56.001Z,11.40
2022-10-14T08:00:23.561Z,11.44
2022-10-14T08:02:50.921Z,11.46
2022-10-14T08:05:37.049Z,11.50
2022-10-14T08:08:05.630Z,11.59
2022-10-14T08:10:34.032Z,11.72
2022-10-14T08:13:01.469Z,11.83
2022-10-14T08:15:31.089Z,11.81
2022-10-14T08:17:58.326Z,11.88
2022-10-14T08:20:26.070Z,11.94
2022-10-14T08:22:53.336Z,11.94
2022-10-14T08:25:20.669Z,12.12
2022-10-14T08:27:50.559Z,12.09
2022-10-14T08:30:18.272Z,12.16
2022-10-14T08:32:45.516Z,12.27
2022-10-14T08:35:13.231Z,12.29
2022-10-14T08:37:40.541Z,12.18
2022-10-14T08:40:08.810Z,12.19
2022-10-14T08:42:56.120Z,12.19
2022-10-14T08:45:44.543Z,12.24
2022-10-14T08:48:18.500Z,12.30
2022-10-14T08:50:54.820Z,12.27
2022-10-14T08:53:28.415Z,12.25
2022-10-14T08:56:00.531Z,12.37
2022-10-14T08:58:38.689Z,12.35
2022-10-14T09:01:44.293Z,12.40
2022-10-14T09:04:15.084Z,12.45
2022-10-14T09:06:45.375Z,12.57
2022-10-14T09:09:32.872Z,12.73
2022-10-14T09:12:05.101Z,12.77
2022-10-14T09:14:37.357Z,12.87
2022-10-14T09:17:22.183Z,13.08
2022-10-14T09:20:02.179Z,13.24
2022-10-14T09:22:29.461Z,13.28
2022-10-14T09:24:58.848Z,13.34
2022-10-14T09:27:28.827Z,13.39
2022-10-14T09:30:09.269Z,13.45
2022-10-14T09:32:41.539Z,13.46
2022-10-14T09:35:41.673Z,13.39
2022-10-14T09:38:11.589Z,13.42
2022-10-14T09:40:44.866Z,13.48
2022-10-14T09:43:18.227Z,13.56
2022-10-14T09:46:01.979Z,13.63
2022-10-14T09:48:32.432Z,13.81
2022-10-14T09:51:07.541Z,14.33
2022-10-14T09:53:41.178Z,14.64
2022-10-14T09:56:12.942Z,14.79
2022-10-14T09:58:57.457Z,14.93
2022-10-14T10:02:00.537Z,15.09
2022-10-14T10:04:30.862Z,15.00
2022-10-14T10:07:03.076Z,15.08
2022-10-14T10:09:30.290Z,15.13
2022-10-14T10:11:57.694Z,15.12
2022-10-14T10:14:33.812Z,15.15
2022-10-14T10:17:10.170Z,15.25
2022-10-14T10:19:46.231Z,15.29
2022-10-14T10:25:00.725Z,15.50
2022-10-14T10:27:35.050Z,15.55
2022-10-14T10:30:20.455Z,15.81
2022-10-14T10:33:15.389Z,15.80
2022-10-14T10:35:45.475Z,15.92
2022-10-14T10:38:57.064Z,15.86
2022-10-14T10:41:27.386Z,15.67
2022-10-14T10:44:02.300Z,15.60
2022-10-14T10:46:57.524Z,15.46
2022-10-14T10:50:00.701Z,15.36
2022-10-14T10:52:52.909Z,15.48
2022-10-14T10:55:26.129Z,15.49
2022-10-14T10:58:19.959Z,15.60
2022-10-14T11:01:31.333Z,15.74
2022-10-14T11:04:19.030Z,15.95
2022-10-14T11:07:27.067Z,16.06
2022-10-14T11:10:49.783Z,15.97
2022-10-14T11:13:51.163Z,15.82
2022-10-14T11:16:36.248Z,15.83
2022-10-14T11:19:14.871Z,15.79
2022-10-14T11:21:59.336Z,15.77
2022-10-14T11:24:54.819Z,15.82
2022-10-14T11:27:44.133Z,15.85
2022-10-14T11:30:19.305Z,15.84
2022-10-14T11:33:22.697Z,15.83
2022-10-14T11:36:14.728Z,15.60
2022-10-14T11:38:53.932Z,15.53
2022-10-14T11:41:47.546Z,15.49
2022-10-14T11:44:19.065Z,15.41
2022-10-14T11:47:05.279Z,15.53
2022-10-14T11:49:55.800Z,15.46
2022-10-14T11:52:30.282Z,15.56
2022-10-14T11:55:14.554Z,15.60
2022-10-14T11:57:47.165Z,15.48
2022-10-14T12:00:34.918Z,15.50
2022-10-14T12:03:05.350Z,15.68
2022-10-14T12:05:44.914Z,15.73
2022-10-14T12:08:46.328Z,15.79
2022-10-14T12:11:28.588Z,15.73
2022-10-14T12:14:16.716Z,15.76
2022-10-14T12:16:47.617Z,15.59
2022-10-14T12:19:23.827Z,15.32
2022-10-14T12:22:14.182Z,15.30
2022-10-14T12:24:46.538Z,15.27
2022-10-14T12:27:15.403Z,15.12
2022-10-14T12:29:50.019Z,15.19
2022-10-14T12:32:19.684Z,15.21
2022-10-14T12:34:53.886Z,15.16
2022-10-14T12:37:27.260Z,15.26
2022-10-14T12:40:07.267Z,15.12
2022-10-14T12:42:44.133Z,15.15
2022-10-14T12:45:21.139Z,15.21
2022-10-14T12:48:20.702Z,15.31
2022-10-14T12:50:49.807Z,15.37
2022-10-14T12:53:21.778Z,15.46
2022-10-14T12:56:04.349Z,15.65
2022-10-14T12:58:33.397Z,15.58
2022-10-14T13:01:06.598Z,15.60
2022-10-14T13:03:44.241Z,15.59
2022-10-14T13:06:42.385Z,15.76
2022-10-14T13:09:12.723Z,15.68
2022-10-14T13:11:44.933Z,15.84
2022-10-14T13:14:27.424Z,15.83
2022-10-14T13:16:57.054Z,15.70
2022-10-14T13:19:33.247Z,15.68
2022-10-14T13:22:02.127Z,15.82
2022-10-14T13:24:41.941Z,15.73
2022-10-14T13:27:39.842Z,15.75
2022-10-14T13:30:10.295Z,15.75
2022-10-14T13:32:59.483Z,15.77
2022-10-14T13:35:53.793Z,15.90
2022-10-14T13:38:23.974Z,15.87
2022-10-14T13:40:57.395Z,16.02
2022-10-14T13:43:34.303Z,16.11
2022-10-14T13:46:27.950Z,16.05
2022-10-14T13:48:59.278Z,16.01
2022-10-14T13:51:45.543Z,15.93
2022-10-14T13:54:16.977Z,15.78
2022-10-14T13:56:44.698Z,15.78
2022-10-14T13:59:43.531Z,15.69
2022-10-14T14:02:21.385Z,15.53
2022-10-14T14:04:53.465Z,15.43
2022-10-14T14:07:58.906Z,15.36
2022-10-14T14:10:12.448Z,15.37
2022-10-14T14:12:42.516Z,15.28
2022-10-14T14:15:27.045Z,15.22
2022-10-14T14:17:54.839Z,15.17
2022-10-14T14:20:23.091Z,15.16
2022-10-14T14:22:51.073Z,15.06
2022-10-14T14:25:34.186Z,14.99
2022-10-14T14:28:07.829Z,14.96
2022-10-14T14:30:37.660Z,14.84
2022-10-14T14:33:11.097Z,14.77
2022-10-14T14:35:38.520Z,14.82
2022-10-14T14:38:24.609Z,14.74
2022-10-14T14:41:02.066Z,14.67
2022-10-14T14:43:34.742Z,14.65
2022-10-14T14:46:04.000Z,14.66
2022-10-14T14:48:36.614Z,14.69
2022-10-14T14:51:04.349Z,14.75
2022-10-14T14:53:32.043Z,14.78
2022-10-14T14:56:24.872Z,14.78
2022-10-14T14:58:59.242Z,14.72
2022-10-14T15:01:29.129Z,14.71
2022-10-14T15:04:13.757Z,14.77
2022-10-14T15:07:01.468Z,14.71
2022-10-14T15:09:50.940Z,14.81
2022-10-14T15:12:21.866Z,14.68
2022-10-14T15:14:53.418Z,14.58
2022-10-14T15:17:27.125Z,14.47
2022-10-14T15:19:57.867Z,14.54
2022-10-14T15:22:47.367Z,14.45
2022-10-14T15:25:17.668Z,14.43
2022-10-14T15:27:51.708Z,14.41
2022-10-14T15:30:50.501Z,14.38
2022-10-14T15:33:26.314Z,14.36
2022-10-14T15:36:03.514Z,14.29
2022-10-14T15:40:59.265Z,14.37
2022-10-14T15:43:27.575Z,14.27
2022-10-14T15:46:18.398Z,14.22
2022-10-14T15:48:50.043Z,14.22
2022-10-14T15:51:20.292Z,14.15
2022-10-14T15:53:48.945Z,14.11
2022-10-14T15:56:21.139Z,14.03
2022-10-14T15:58:49.451Z,13.98
2022-10-14T16:01:20.735Z,14.06
2022-10-14T16:03:55.483Z,14.00
2022-10-14T16:06:24.450Z,14.05
2022-10-14T16:08:52.363Z,13.95
2022-10-14T16:11:22.254Z,13.87
2022-10-14T16:13:49.567Z,13.87
2022-10-14T16:16:24.116Z,13.80
2022-10-14T16:18:51.823Z,13.87
2022-10-14T16:21:19.235Z,13.90
2022-10-14T16:23:46.447Z,13.90
2022-10-14T16:26:14.507Z,13.88
2022-10-14T16:28:41.830Z,13.84
2022-10-14T16:31:14.327Z,13.85
2022-10-14T16:33:44.807Z,13.91
2022-10-14T16:36:15.037Z,14.00
2022-10-14T16:38:42.336Z,14.04
2022-10-14T16:41:11.398Z,14.02
2022-10-14T16:43:39.110Z,13.88
2022-10-14T16:46:10.366Z,13.76
2022-10-14T16:48:40.818Z,13.72
2022-10-14T16:51:08.552Z,13.71
2022-10-14T16:53:42.098Z,13.70
2022-10-14T16:56:32.788Z,13.64
2022-10-14T16:59:01.060Z,13.64
2022-10-14T17:01:29.503Z,13.67
2022-10-14T17:03:57.635Z,13.71
2022-10-14T17:06:26.057Z,13.68
2022-10-14T17:08:53.596Z,13.61
2022-10-14T17:11:21.917Z,13.65
2022-10-14T17:13:53.499Z,13.53
2022-10-14T17:16:21.597Z,13.50
2022-10-14T17:21:21.861Z,13.33
2022-10-14T17:23:49.405Z,13.24
2022-10-14T17:26:18.604Z,13.17
2022-10-14T17:28:47.273Z,13.05
2022-10-14T17:31:20.589Z,13.02
2022-10-14T17:33:47.775Z,12.93
2022-10-14T17:36:24.354Z,12.91
2022-10-14T17:38:52.327Z,12.87
2022-10-14T17:41:20.059Z,12.85
2022-10-14T17:43:49.625Z,12.86
2022-10-14T17:46:20.880Z,12.79
2022-10-14T17:48:53.392Z,12.81
2022-10-14T17:51:25.506Z,12.75
2022-10-14T17:53:58.459Z,12.76
2022-10-14T17:56:27.423Z,12.74
2022-10-14T17:58:57.030Z,12.69
2022-10-14T18:01:37.146Z,12.64
2022-10-14T18:04:05.069Z,12.69
2022-10-14T18:06:37.346Z,12.68
2022-10-14T18:09:09.776Z,12.62
2022-10-14T18:12:07.170Z,12.65
2022-10-14T18:14:28.722Z,12.62
2022-10-14T18:16:56.300Z,12.58
2022-10-14T18:19:23.578Z,12.59
2022-10-14T18:21:51.680Z,12.50
2022-10-14T18:24:19.956Z,12.51
2022-10-14T18:26:50.099Z,12.45
2022-10-14T18:29:17.601Z,12.45
2022-10-14T18:31:44.904Z,12.41
2022-10-14T18:34:12.281Z,12.35
2022-10-14T18:36:39.574Z,12.39
2022-10-14T18:39:10.162Z,12.41
2022-10-14T18:41:37.847Z,12.25
2022-10-14T18:44:06.496Z,12.30
2022-10-14T18:46:37.269Z,12.31
2022-10-14T18:49:06.399Z,12.30
2022-10-14T18:51:36.752Z,12.32
2022-10-14T18:54:12.400Z,12.24
2022-10-14T18:56:39.837Z,12.27
2022-10-14T18:59:10.031Z,12.23
2022-10-14T19:01:39.405Z,12.18
2022-10-14T19:04:09.581Z,12.07
2022-10-14T19:06:37.055Z,12.08
2022-10-14T19:09:05.357Z,12.10
2022-10-14T19:11:34.760Z,12.05
2022-10-14T19:14:04.590Z,12.05
2022-10-14T19:16:34.085Z,12.08
2022-10-14T19:19:08.031Z,12.03
2022-10-14T19:21:35.416Z,12.03
2022-10-14T19:24:03.676Z,12.01
2022-10-14T19:26:34.362Z,11.99
2022-10-14T19:29:06.376Z,12.07
2022-10-14T19:31:37.678Z,12.08
2022-10-14T19:34:07.838Z,12.04
2022-10-14T19:36:37.458Z,12.09
2022-10-14T19:39:07.377Z,12.24
2022-10-14T19:41:40.244Z,12.15
2022-10-14T19:44:07.610Z,12.14
2022-10-14T19:46:34.921Z,12.12
2022-10-14T19:49:03.444Z,12.03
2022-10-14T19:51:32.249Z,12.03
2022-10-14T19:54:00.591Z,12.08
2022-10-14T19:56:30.225Z,12.01
2022-10-14T19:58:59.744Z,12.03
2022-10-14T20:01:30.517Z,12.04
2022-10-14T20:04:01.492Z,12.01
2022-10-14T20:06:35.634Z,12.05
2022-10-14T20:09:08.773Z,12.10
2022-10-14T20:11:37.385Z,12.07
2022-10-14T20:14:05.361Z,12.08
2022-10-14T20:16:37.006Z,12.09
2022-10-14T20:19:06.471Z,12.09
2022-10-14T20:21:34.043Z,12.19
2022-10-14T20:24:01.344Z,12.21
2022-10-14T20:26:28.760Z,12.17
2022-10-14T20:28:56.147Z,12.13
2022-10-14T20:31:25.521Z,12.18
2022-10-14T20:33:55.348Z,12.24
2022-10-14T20:36:22.879Z,12.18
2022-10-14T20:38:50.609Z,12.23
2022-10-14T20:41:23.624Z,12.24
2022-10-14T20:43:52.195Z,12.19
2022-10-14T20:46:20.230Z,12.37
2022-10-14T20:48:48.350Z,12.36
2022-10-14T20:51:17.672Z,12.27
2022-10-14T20:53:45.311Z,12.36
2022-10-14T20:56:13.383Z,12.30
2022-10-14T20:58:40.965Z,12.37
2022-10-14T21:01:17.226Z,12.38
2022-10-14T21:03:46.121Z,12.34
2022-10-14T21:06:18.998Z,12.30
2022-10-14T21:08:47.332Z,12.29
2022-10-14T21:11:17.185Z,12.30
2022-10-14T21:13:50.504Z,12.34
2022-10-14T21:16:22.349Z,12.42
2022-10-14T21:18:55.351Z,12.39
2022-10-14T21:21:27.325Z,12.28
2022-10-14T21:23:55.843Z,12.30
2022-10-14T21:26:23.831Z,12.32
2022-10-14T21:28:51.304Z,12.30
2022-10-14T21:31:20.174Z,12.37
2022-10-14T21:33:53.634Z,12.36
2022-10-14T21:36:20.855Z,12.40
2022-10-14T21:38:48.351Z,12.47
2022-10-14T21:41:15.859Z,12.47
2022-10-14T21:43:43.172Z,12.44
2022-10-14T21:46:15.606Z,12.48
2022-10-14T21:48:44.598Z,12.61
2022-10-14T21:51:18.176Z,12.59
2022-10-14T21:53:46.284Z,12.53
2022-10-14T21:56:14.984Z,12.53
2022-10-14T21:58:42.939Z,12.57
2022-10-14T22:01:11.810Z,12.60
2022-10-14T22:03:40.821Z,12.56
2022-10-14T22:06:12.045Z,12.57
2022-10-14T22:08:50.414Z,12.49
2022-10-14T22:11:22.852Z,12.56
2022-10-14T22:13:51.563Z,12.53
2022-10-14T22:16:19.576Z,12.57
2022-10-14T22:18:50.705Z,12.54
2022-10-14T22:21:22.320Z,12.52
2022-10-14T22:23:50.380Z,12.44
2022-10-14T22:26:20.457Z,12.44
2022-10-14T22:28:48.484Z,12.53
2022-10-14T22:31:21.085Z,12.54
2022-10-14T22:33:48.784Z,12.49
2022-10-14T22:36:24.185Z,12.57
2022-10-14T22:38:53.314Z,12.55
2022-10-14T22:41:22.078Z,12.61
2022-10-14T22:43:55.485Z,12.66
2022-10-14T22:46:25.818Z,12.68
2022-10-14T22:48:56.331Z,12.66
2022-10-14T22:53:59.888Z,12.60
2022-10-14T22:56:29.952Z,12.56
2022-10-14T22:59:02.748Z,12.51
2022-10-14T23:01:30.705Z,12.46
2022-10-14T23:03:59.025Z,12.41
2022-10-14T23:06:27.274Z,12.40
2022-10-14T23:08:54.998Z,12.43
2022-10-14T23:11:31.885Z,12.45
2022-10-14T23:14:04.409Z,12.45
2022-10-14T23:16:35.788Z,12.45
2022-10-14T23:19:03.551Z,12.40
2022-10-14T23:21:32.991Z,12.46
2022-10-14T23:24:04.127Z,12.45
2022-10-14T23:26:35.488Z,12.44
2022-10-14T23:29:08.935Z,12.52
2022-10-14T23:31:38.008Z,12.47
2022-10-14T23:34:10.060Z,12.45
2022-10-14T23:36:37.683Z,12.50
2022-10-14T23:39:05.151Z,12.46
2022-10-14T23:41:32.663Z,12.43
2022-10-14T23:44:00.329Z,12.48
2022-10-14T23:46:27.639Z,12.48
2022-10-14T23:49:06.681Z,12.48
2022-10-14T23:51:35.603Z,12.46
2022-10-14T23:54:03.212Z,12.53
2022-10-14T23:56:30.542Z,12.51
2022-10-14T23:58:57.871Z,12.48
